createdAt,value
2018-11-26T00:02:05.564Z,21.10
2018-11-26T00:04:34.357Z,20.70
2018-11-26T00:07:03.391Z,19.53
2018-11-26T00:09:33.591Z,21.10
2018-11-26T00:12:03.975Z,22.07
2018-11-26T00:14:32.808Z,22.90
2018-11-26T00:17:02.999Z,20.33
2018-11-26T00:19:32.500Z,21.27
2018-11-26T00:22:01.147Z,20.67
2018-11-26T00:24:30.400Z,21.20
2018-11-26T00:27:00.095Z,22.03
2018-11-26T00:29:28.949Z,20.33
2018-11-26T00:31:58.039Z,21.00
2018-11-26T00:34:27.165Z,20.73
2018-11-26T00:36:55.765Z,21.37
2018-11-26T00:39:25.284Z,22.17
2018-11-26T00:41:53.879Z,21.80
2018-11-26T00:44:22.504Z,21.27
2018-11-26T00:46:51.130Z,20.53
2018-11-26T00:49:19.742Z,22.10
2018-11-26T00:51:48.717Z,21.67
2018-11-26T00:54:17.602Z,20.67
2018-11-26T00:56:46.907Z,20.97
2018-11-26T00:59:15.817Z,21.87
2018-11-26T01:01:45.106Z,21.50
2018-11-26T01:04:14.291Z,22.07
2018-11-26T01:06:42.884Z,22.37
2018-11-26T01:09:11.914Z,21.40
2018-11-26T01:11:42.837Z,21.70
2018-11-26T01:14:12.230Z,20.47
2018-11-26T01:16:41.161Z,20.40
2018-11-26T01:19:10.490Z,22.13
2018-11-26T01:21:39.038Z,21.73
2018-11-26T01:24:08.746Z,20.63
2018-11-26T01:26:38.382Z,21.43
2018-11-26T01:29:07.339Z,20.57
2018-11-26T01:31:36.487Z,20.90
2018-11-26T01:34:06.140Z,20.80
2018-11-26T01:36:35.226Z,20.10
2018-11-26T01:39:04.019Z,19.43
2018-11-26T01:41:32.852Z,21.00
2018-11-26T01:44:02.854Z,20.43
2018-11-26T01:46:32.855Z,20.10
2018-11-26T01:49:01.410Z,21.20
2018-11-26T01:51:31.176Z,20.00
2018-11-26T01:53:59.954Z,19.70
2018-11-26T01:56:29.104Z,19.47
2018-11-26T01:58:58.392Z,19.10
2018-11-26T02:01:26.991Z,19.60
2018-11-26T02:03:56.024Z,19.23
2018-11-26T02:06:24.972Z,20.13
2018-11-26T02:08:54.178Z,18.13
2018-11-26T02:11:23.363Z,18.53
2018-11-26T02:13:53.258Z,18.40
2018-11-26T02:16:22.191Z,17.90
2018-11-26T02:18:51.066Z,19.90
2018-11-26T02:21:20.541Z,18.97
2018-11-26T02:23:49.116Z,20.37
2018-11-26T02:26:17.995Z,18.97
2018-11-26T02:28:46.604Z,19.10
2018-11-26T02:31:15.837Z,20.17
2018-11-26T02:33:45.257Z,18.90
2018-11-26T02:36:14.253Z,19.57
2018-11-26T02:38:44.005Z,18.73
2018-11-26T02:41:13.107Z,19.37
2018-11-26T02:43:41.912Z,18.07
2018-11-26T02:46:11.444Z,18.53
2018-11-26T02:48:40.505Z,18.37
2018-11-26T02:51:10.413Z,19.17
2018-11-26T02:53:39.700Z,19.37
2018-11-26T02:56:08.936Z,19.07
2018-11-26T02:58:38.069Z,19.33
2018-11-26T03:01:08.361Z,18.23
2018-11-26T03:03:37.558Z,17.67
2018-11-26T03:06:06.708Z,17.20
2018-11-26T03:08:37.899Z,18.33
2018-11-26T03:11:08.089Z,18.50
2018-11-26T03:13:38.109Z,19.37
2018-11-26T03:16:07.243Z,18.70
2018-11-26T03:18:36.922Z,18.73
2018-11-26T03:21:05.990Z,17.07
2018-11-26T03:23:35.180Z,19.33
2018-11-26T03:26:03.725Z,18.83
2018-11-26T03:28:32.310Z,19.27
2018-11-26T03:31:01.664Z,18.67
2018-11-26T03:33:30.680Z,18.90
2018-11-26T03:35:59.489Z,18.70
2018-11-26T03:39:07.353Z,20.40
2018-11-26T03:41:36.589Z,19.43
2018-11-26T03:44:05.689Z,21.00
2018-11-26T03:46:35.520Z,20.57
2018-11-26T03:49:04.112Z,21.00
2018-11-26T03:51:33.692Z,19.70
2018-11-26T03:54:04.176Z,19.10
2018-11-26T03:56:33.366Z,19.77
2018-11-26T03:59:02.859Z,20.40
2018-11-26T04:01:32.109Z,21.30
2018-11-26T04:04:01.030Z,20.90
2018-11-26T04:06:29.928Z,22.20
2018-11-26T04:08:59.434Z,21.87
2018-11-26T04:11:28.748Z,20.40
2018-11-26T04:13:57.341Z,19.50
2018-11-26T04:16:27.001Z,20.73
2018-11-26T04:18:56.823Z,21.03
2018-11-26T04:21:27.219Z,21.37
2018-11-26T04:23:56.573Z,20.67
2018-11-26T04:26:25.728Z,22.33
2018-11-26T04:28:54.869Z,20.40
2018-11-26T04:31:24.061Z,19.83
2018-11-26T04:33:55.198Z,25.87
2018-11-26T04:36:24.769Z,21.40
2018-11-26T04:38:53.995Z,21.53
2018-11-26T04:41:23.073Z,24.03
2018-11-26T04:43:52.878Z,29.40
2018-11-26T04:46:22.060Z,32.40
2018-11-26T04:48:51.268Z,32.50
2018-11-26T04:51:21.069Z,29.30
2018-11-26T04:53:51.237Z,21.10
2018-11-26T04:56:20.900Z,23.73
2018-11-26T04:58:50.549Z,29.47
2018-11-26T05:01:19.368Z,25.90
2018-11-26T05:03:49.390Z,21.67
2018-11-26T05:06:18.279Z,28.83
2018-11-26T05:08:46.839Z,22.50
2018-11-26T05:11:15.636Z,22.13
2018-11-26T05:13:44.408Z,24.33
2018-11-26T05:16:14.529Z,37.17
2018-11-26T05:18:43.480Z,29.43
2018-11-26T05:21:12.460Z,26.83
2018-11-26T05:23:41.976Z,26.33
2018-11-26T05:26:10.682Z,25.20
2018-11-26T05:28:39.579Z,21.10
2018-11-26T05:31:08.733Z,18.13
2018-11-26T05:33:37.757Z,19.50
2018-11-26T05:36:06.653Z,17.83
2018-11-26T05:38:35.460Z,22.00
2018-11-26T05:41:04.279Z,18.13
2018-11-26T05:43:33.497Z,20.40
2018-11-26T05:46:02.882Z,17.97
2018-11-26T05:48:33.371Z,19.03
2018-11-26T05:51:02.300Z,17.93
2018-11-26T05:53:31.676Z,16.47
2018-11-26T05:56:00.256Z,14.63
2018-11-26T05:58:29.378Z,16.07
2018-11-26T06:00:59.144Z,17.37
2018-11-26T06:03:28.195Z,17.30
2018-11-26T06:05:57.152Z,14.03
2018-11-26T06:08:26.255Z,15.13
2018-11-26T06:10:55.416Z,16.97
2018-11-26T06:13:25.235Z,15.70
2018-11-26T06:15:54.983Z,14.37
2018-11-26T06:18:23.914Z,14.23
2018-11-26T06:20:52.500Z,13.50
2018-11-26T06:23:22.090Z,15.37
2018-11-26T06:25:53.285Z,13.77
2018-11-26T06:28:23.377Z,11.37
2018-11-26T06:30:52.893Z,14.40
2018-11-26T06:33:29.843Z,14.03
2018-11-26T06:35:58.536Z,11.10
2018-11-26T06:38:32.327Z,11.67
2018-11-26T06:41:01.919Z,13.53
2018-11-26T06:43:32.648Z,11.57
2018-11-26T06:46:06.664Z,12.60
2018-11-26T06:48:43.447Z,10.67
2018-11-26T06:51:12.858Z,9.50
2018-11-26T06:53:43.949Z,10.60
2018-11-26T06:56:14.980Z,12.93
2018-11-26T06:58:45.571Z,15.67
2018-11-26T07:01:21.369Z,12.03
2018-11-26T07:03:52.331Z,11.70
2018-11-26T07:06:21.565Z,10.77
2018-11-26T07:08:54.069Z,10.50
2018-11-26T07:11:30.170Z,11.47
2018-11-26T07:14:00.128Z,10.93
2018-11-26T07:16:30.625Z,12.30
2018-11-26T07:18:59.705Z,11.43
2018-11-26T07:21:28.481Z,11.83
2018-11-26T07:23:58.833Z,10.10
2018-11-26T07:26:28.875Z,11.80
2018-11-26T07:28:59.109Z,10.57
2018-11-26T07:31:28.532Z,11.40
2018-11-26T07:34:02.121Z,12.03
2018-11-26T07:36:35.132Z,11.80
2018-11-26T07:39:04.998Z,10.57
2018-11-26T07:41:33.778Z,10.90
2018-11-26T07:44:03.279Z,12.17
2018-11-26T07:46:33.479Z,11.30
2018-11-26T07:49:03.301Z,11.23
2018-11-26T07:51:32.745Z,11.13
2018-11-26T07:54:03.469Z,12.67
2018-11-26T07:56:32.453Z,11.60
2018-11-26T07:59:05.514Z,11.47
2018-11-26T08:01:35.069Z,11.63
2018-11-26T08:04:06.807Z,10.93
2018-11-26T08:06:35.916Z,11.33
2018-11-26T08:09:06.281Z,13.83
2018-11-26T08:11:35.716Z,11.57
2018-11-26T08:14:06.551Z,10.87
2018-11-26T08:16:35.138Z,10.83
2018-11-26T08:19:03.957Z,11.10
2018-11-26T08:21:33.776Z,11.27
2018-11-26T08:24:03.836Z,9.87
2018-11-26T08:26:34.729Z,8.97
2018-11-26T08:29:04.708Z,9.00
2018-11-26T08:31:36.265Z,10.50
2018-11-26T08:34:07.016Z,9.57
2018-11-26T08:36:45.457Z,9.10
2018-11-26T08:39:22.724Z,13.70
2018-11-26T08:41:52.852Z,9.43
2018-11-26T08:44:28.665Z,11.87
2018-11-26T08:47:04.633Z,9.17
2018-11-26T08:49:34.947Z,9.50
2018-11-26T08:52:04.453Z,10.23
2018-11-26T08:54:34.410Z,8.63
2018-11-26T08:57:03.460Z,9.20
2018-11-26T08:59:33.617Z,9.50
2018-11-26T09:02:02.434Z,10.33
2018-11-26T09:04:34.331Z,10.17
2018-11-26T09:07:03.423Z,8.93
2018-11-26T09:09:32.959Z,8.60
2018-11-26T09:12:00.980Z,8.87
2018-11-26T09:14:32.638Z,9.10
2018-11-26T09:17:02.947Z,8.87
2018-11-26T09:19:33.038Z,9.30
2018-11-26T09:22:10.243Z,8.93
2018-11-26T09:24:43.904Z,8.57
2018-11-26T09:27:19.412Z,9.17
2018-11-26T09:29:51.430Z,8.47
2018-11-26T09:32:29.977Z,8.60
2018-11-26T09:34:59.995Z,10.37
2018-11-26T09:37:33.949Z,14.50
2018-11-26T09:40:10.072Z,9.50
2018-11-26T09:42:44.870Z,9.27
2018-11-26T09:45:20.090Z,9.00
2018-11-26T09:47:50.049Z,8.83
2018-11-26T09:50:21.670Z,9.43
2018-11-26T09:52:56.627Z,8.43
2018-11-26T09:55:32.170Z,9.10
2018-11-26T09:58:08.154Z,8.47
2018-11-26T10:00:40.727Z,7.67
2018-11-26T10:03:11.895Z,8.27
2018-11-26T10:05:51.200Z,8.43
2018-11-26T10:08:21.385Z,9.97
2018-11-26T10:11:00.446Z,9.07
2018-11-26T10:13:29.245Z,11.20
2018-11-26T10:16:04.798Z,14.90
2018-11-26T10:18:34.014Z,9.63
2018-11-26T10:21:04.728Z,22.30
2018-11-26T10:23:33.790Z,13.33
2018-11-26T10:26:03.417Z,17.50
2018-11-26T10:28:34.175Z,20.43
2018-11-26T10:31:05.022Z,20.73
2018-11-26T10:33:36.302Z,18.83
2018-11-26T10:36:07.594Z,27.07
2018-11-26T10:38:37.300Z,16.20
2018-11-26T10:41:11.192Z,16.90
2018-11-26T10:43:40.357Z,12.13
2018-11-26T10:46:15.765Z,11.90
2018-11-26T10:48:45.257Z,12.13
2018-11-26T10:51:15.355Z,11.00
2018-11-26T10:53:45.354Z,11.43
2018-11-26T10:56:14.755Z,12.13
2018-11-26T10:58:43.648Z,11.77
2018-11-26T11:01:17.692Z,11.60
2018-11-26T11:03:46.531Z,11.67
2018-11-26T11:06:15.384Z,11.37
2018-11-26T11:08:44.907Z,12.57
2018-11-26T11:11:13.445Z,11.50
2018-11-26T11:13:43.173Z,11.10
2018-11-26T11:16:13.613Z,13.90
2018-11-26T11:18:42.440Z,12.10
2018-11-26T11:21:17.047Z,11.67
2018-11-26T11:23:46.361Z,12.00
2018-11-26T11:26:29.937Z,12.53
2018-11-26T11:29:00.663Z,12.77
2018-11-26T11:34:08.411Z,12.67
2018-11-26T11:36:36.966Z,12.00
2018-11-26T11:39:12.019Z,12.47
2018-11-26T11:41:47.586Z,13.13
2018-11-26T11:44:31.478Z,12.47
2018-11-26T11:47:07.537Z,11.47
2018-11-26T11:49:45.431Z,13.60
2018-11-26T11:52:15.389Z,12.60
2018-11-26T11:54:47.667Z,12.30
2018-11-26T11:57:29.643Z,12.63
2018-11-26T12:00:08.242Z,12.80
2018-11-26T12:02:39.968Z,12.57
2018-11-26T12:05:10.543Z,13.67
2018-11-26T12:07:39.158Z,12.67
2018-11-26T12:10:09.819Z,12.10
2018-11-26T12:12:39.852Z,11.77
2018-11-26T12:15:10.431Z,11.63
2018-11-26T12:17:39.383Z,12.27
2018-11-26T12:20:09.798Z,12.07
2018-11-26T12:22:38.705Z,12.20
2018-11-26T12:25:08.870Z,11.73
2018-11-26T12:27:38.525Z,10.80
2018-11-26T12:30:24.833Z,10.73
2018-11-26T12:32:54.488Z,10.13
2018-11-26T12:35:24.248Z,10.63
2018-11-26T12:37:53.076Z,11.53
2018-11-26T12:40:25.456Z,11.13
2018-11-26T12:42:55.551Z,11.20
2018-11-26T12:45:28.222Z,10.80
2018-11-26T12:47:56.873Z,10.20
2018-11-26T12:50:25.768Z,11.67
2018-11-26T12:52:54.961Z,11.30
2018-11-26T12:55:24.063Z,11.30
2018-11-26T12:57:53.633Z,10.80
2018-11-26T13:00:25.304Z,11.53
2018-11-26T13:02:59.043Z,11.87
2018-11-26T13:05:27.633Z,11.97
2018-11-26T13:07:57.157Z,12.17
2018-11-26T13:10:26.165Z,12.53
2018-11-26T13:12:55.563Z,12.30
2018-11-26T13:15:25.495Z,11.53
2018-11-26T13:17:59.607Z,12.23
2018-11-26T13:20:29.433Z,12.50
2018-11-26T13:22:58.088Z,11.33
2018-11-26T13:25:30.725Z,11.37
2018-11-26T13:28:29.644Z,13.20
2018-11-26T13:31:11.506Z,13.23
2018-11-26T13:33:58.564Z,12.23
2018-11-26T13:36:34.146Z,13.40
2018-11-26T13:42:06.519Z,12.80
2018-11-26T13:44:41.889Z,13.30
2018-11-26T13:47:23.067Z,12.93
2018-11-26T13:50:09.566Z,13.53
2018-11-26T13:52:48.951Z,14.50
2018-11-26T13:55:27.414Z,13.30
2018-11-26T13:58:04.100Z,13.97
2018-11-26T14:00:34.328Z,16.13
2018-11-26T14:03:14.426Z,16.07
2018-11-26T14:05:49.553Z,14.10
2018-11-26T14:08:18.183Z,15.57
2018-11-26T14:10:57.221Z,15.93
2018-11-26T14:13:32.839Z,14.97
2018-11-26T14:16:03.758Z,15.60
2018-11-26T14:18:38.634Z,14.93
2018-11-26T14:21:16.695Z,16.27
2018-11-26T14:23:55.949Z,15.30
2018-11-26T14:26:24.605Z,15.20
2018-11-26T14:29:01.720Z,15.60
2018-11-26T14:31:38.842Z,16.20
2018-11-26T14:34:12.261Z,16.17
2018-11-26T14:36:48.430Z,16.50
2018-11-26T14:39:31.672Z,15.87
2018-11-26T14:42:10.177Z,17.27
2018-11-26T14:44:47.545Z,15.63
2018-11-26T14:47:22.004Z,15.67
2018-11-26T14:49:52.394Z,15.67
2018-11-26T14:52:26.795Z,15.40
2018-11-26T14:54:58.335Z,15.63
2018-11-26T14:57:32.857Z,15.10
2018-11-26T15:00:03.978Z,15.67
2018-11-26T15:02:51.204Z,16.17
2018-11-26T15:05:23.935Z,16.10
2018-11-26T15:07:59.015Z,15.93
2018-11-26T15:10:28.666Z,15.03
2018-11-26T15:13:01.487Z,15.83
2018-11-26T15:15:33.917Z,15.30
2018-11-26T15:18:05.700Z,15.93
2018-11-26T15:20:40.463Z,15.33
2018-11-26T15:23:13.074Z,16.50
2018-11-26T15:25:41.887Z,16.63
2018-11-26T15:28:31.786Z,17.03
2018-11-26T15:31:06.275Z,15.47
2018-11-26T15:36:16.117Z,19.13
2018-11-26T15:38:45.329Z,17.83
2018-11-26T15:41:15.422Z,16.90
2018-11-26T15:43:44.987Z,16.10
2018-11-26T15:46:13.602Z,16.07
2018-11-26T15:48:42.503Z,17.77
2018-11-26T15:51:11.393Z,16.43
2018-11-26T15:53:40.723Z,15.60
2018-11-26T15:56:09.647Z,15.77
2018-11-26T15:58:39.257Z,15.70
2018-11-26T16:01:08.347Z,15.93
2018-11-26T16:03:38.660Z,14.83
2018-11-26T16:06:07.554Z,15.20
2018-11-26T16:08:36.320Z,16.43
2018-11-26T16:11:05.614Z,15.33
2018-11-26T16:13:35.258Z,16.17
2018-11-26T16:16:07.403Z,15.07
2018-11-26T16:18:42.981Z,14.80
2018-11-26T16:21:16.535Z,14.90
2018-11-26T16:23:46.197Z,15.50
2018-11-26T16:26:15.754Z,15.10
2018-11-26T16:28:47.130Z,14.37
2018-11-26T16:31:18.313Z,15.70
2018-11-26T16:33:58.587Z,26.40
2018-11-26T16:36:27.703Z,15.53
2018-11-26T16:38:58.006Z,17.27
2018-11-26T16:41:28.632Z,17.17
2018-11-26T16:44:04.586Z,18.20
2018-11-26T16:46:35.768Z,16.80
2018-11-26T16:49:12.602Z,17.97
2018-11-26T16:51:45.813Z,21.87
2018-11-26T16:57:02.929Z,17.47
2018-11-26T16:59:35.487Z,20.33
2018-11-26T17:02:11.881Z,19.47
2018-11-26T17:04:42.427Z,16.50
2018-11-26T17:07:12.986Z,17.70
2018-11-26T17:09:43.278Z,17.77
2018-11-26T17:12:19.502Z,18.30
2018-11-26T17:14:48.836Z,17.43
2018-11-26T17:17:17.940Z,16.50
2018-11-26T17:19:58.910Z,18.17
2018-11-26T17:22:32.796Z,18.47
2018-11-26T17:25:02.615Z,16.77
2018-11-26T17:27:37.153Z,17.43
2018-11-26T17:30:16.314Z,16.53
2018-11-26T17:32:46.287Z,17.23
2018-11-26T17:35:16.368Z,16.23
2018-11-26T17:37:52.051Z,17.57
2018-11-26T17:40:47.108Z,17.93
2018-11-26T17:43:16.179Z,16.37
2018-11-26T17:45:45.157Z,17.97
2018-11-26T17:48:29.124Z,17.20
2018-11-26T17:51:00.414Z,17.70
2018-11-26T17:53:33.097Z,18.03
2018-11-26T17:56:08.224Z,17.33
2018-11-26T17:58:43.318Z,17.03
2018-11-26T18:01:25.216Z,17.67
2018-11-26T18:03:56.156Z,17.20
2018-11-26T18:06:25.057Z,19.10
2018-11-26T18:08:54.814Z,19.87
2018-11-26T18:11:26.459Z,17.60
2018-11-26T18:14:05.818Z,20.97
2018-11-26T18:16:40.258Z,22.17
2018-11-26T18:22:02.169Z,18.30
2018-11-26T18:24:50.255Z,18.60
2018-11-26T18:27:22.299Z,15.37
2018-11-26T18:29:58.463Z,14.97
2018-11-26T18:32:31.497Z,13.40
2018-11-26T18:35:02.200Z,13.10
2018-11-26T18:37:31.214Z,14.30
2018-11-26T18:40:07.657Z,13.60
2018-11-26T18:42:51.761Z,13.73
2018-11-26T18:45:29.715Z,13.60
2018-11-26T18:48:03.626Z,12.63
2018-11-26T18:50:32.766Z,11.63
2018-11-26T18:53:01.368Z,12.70
2018-11-26T18:55:30.777Z,13.53
2018-11-26T18:58:00.088Z,16.23
2018-11-26T19:00:32.003Z,14.20
2018-11-26T19:03:01.810Z,16.43
2018-11-26T19:05:30.685Z,14.97
2018-11-26T19:08:00.198Z,14.47
2018-11-26T19:10:31.204Z,15.50
2018-11-26T19:13:16.208Z,15.80
2018-11-26T19:16:13.563Z,14.63
2018-11-26T19:19:07.424Z,13.63
2018-11-26T19:21:45.606Z,14.37
2018-11-26T19:24:26.964Z,13.27
2018-11-26T19:27:02.611Z,12.20
2018-11-26T19:29:39.977Z,13.13
2018-11-26T19:32:13.347Z,12.07
2018-11-26T19:34:45.220Z,13.13
2018-11-26T19:37:17.628Z,13.67
2018-11-26T19:39:49.209Z,13.93
2018-11-26T19:42:23.534Z,15.13
2018-11-26T19:44:53.429Z,14.70
2018-11-26T19:47:25.314Z,13.43
2018-11-26T19:49:55.386Z,13.73
2018-11-26T19:52:31.011Z,24.33
2018-11-26T19:55:09.305Z,15.37
2018-11-26T19:57:39.230Z,13.00
2018-11-26T20:00:13.363Z,12.53
2018-11-26T20:02:42.821Z,18.97
2018-11-26T20:05:16.683Z,16.20
2018-11-26T20:07:46.551Z,16.67
2018-11-26T20:10:15.360Z,13.67
2018-11-26T20:12:43.924Z,15.67
2018-11-26T20:15:15.759Z,16.03
2018-11-26T20:17:44.367Z,15.53
2018-11-26T20:20:13.811Z,14.00
2018-11-26T20:22:43.836Z,14.93
2018-11-26T20:25:13.739Z,14.53
2018-11-26T20:27:43.140Z,14.70
2018-11-26T20:30:14.003Z,15.27
2018-11-26T20:32:44.974Z,13.97
2018-11-26T20:35:13.775Z,13.83
2018-11-26T20:37:42.870Z,13.23
2018-11-26T20:40:16.438Z,13.80
2018-11-26T20:42:50.799Z,12.80
2018-11-26T20:45:19.907Z,12.27
2018-11-26T20:47:50.172Z,12.80
2018-11-26T20:50:21.960Z,13.70
2018-11-26T20:52:51.707Z,13.07
2018-11-26T20:55:21.447Z,13.37
2018-11-26T20:57:52.608Z,13.47
2018-11-26T21:00:23.354Z,14.23
2018-11-26T21:02:54.096Z,13.20
2018-11-26T21:05:23.604Z,13.40
2018-11-26T21:07:53.034Z,13.63
2018-11-26T21:10:22.038Z,13.10
2018-11-26T21:12:51.162Z,13.90
2018-11-26T21:15:20.208Z,17.17
2018-11-26T21:17:51.896Z,13.67
2018-11-26T21:20:26.987Z,14.00
2018-11-26T21:22:57.293Z,13.27
2018-11-26T21:25:25.347Z,12.83
2018-11-26T21:27:55.295Z,13.27
2018-11-26T21:30:24.801Z,12.53
2018-11-26T21:32:53.385Z,13.20
2018-11-26T21:35:22.628Z,14.53
2018-11-26T21:37:53.178Z,12.80
2018-11-26T21:40:23.308Z,12.57
2018-11-26T21:42:53.033Z,15.43
2018-11-26T21:45:23.133Z,15.73
2018-11-26T21:47:52.432Z,16.70
2018-11-26T21:50:21.619Z,19.30
2018-11-26T21:52:50.521Z,17.40
2018-11-26T21:55:19.691Z,16.87
2018-11-26T21:57:49.060Z,15.73
2018-11-26T22:00:25.380Z,15.10
2018-11-26T22:02:54.563Z,15.40
2018-11-26T22:05:23.616Z,17.30
2018-11-26T22:07:52.857Z,17.27
2018-11-26T22:10:23.728Z,16.90
2018-11-26T22:12:54.025Z,15.77
2018-11-26T22:15:23.337Z,14.70
2018-11-26T22:17:52.478Z,14.17
2018-11-26T22:20:24.865Z,13.50
2018-11-26T22:22:54.546Z,13.37
2018-11-26T22:25:23.217Z,13.80
2018-11-26T22:27:52.731Z,13.87
2018-11-26T22:30:27.244Z,13.50
2018-11-26T22:32:56.149Z,12.90
2018-11-26T22:35:25.157Z,13.67
2018-11-26T22:37:54.750Z,13.77
2018-11-26T22:40:24.343Z,13.07
2018-11-26T22:42:52.975Z,14.30
2018-11-26T22:45:28.055Z,13.10
2018-11-26T22:48:06.775Z,14.10
2018-11-26T22:50:36.786Z,13.43
2018-11-26T22:53:06.144Z,13.83
2018-11-26T22:55:34.780Z,12.57
2018-11-26T22:58:03.558Z,13.70
2018-11-26T23:00:48.560Z,12.97
2018-11-26T23:03:18.519Z,12.90
2018-11-26T23:05:47.515Z,13.33
2018-11-26T23:08:16.873Z,12.90
2018-11-26T23:10:45.476Z,13.47
2018-11-26T23:13:14.471Z,12.97
2018-11-26T23:15:43.408Z,12.93
2018-11-26T23:18:13.826Z,12.97
2018-11-26T23:20:43.689Z,13.47
2018-11-26T23:23:12.254Z,12.10
2018-11-26T23:25:41.071Z,12.63
2018-11-26T23:28:10.502Z,13.10
2018-11-26T23:30:39.358Z,14.13
2018-11-26T23:33:08.418Z,13.97
2018-11-26T23:35:37.330Z,13.10
2018-11-26T23:38:06.508Z,12.93
2018-11-26T23:40:35.877Z,12.83
2018-11-26T23:43:05.252Z,13.63
2018-11-26T23:45:34.588Z,14.13
2018-11-26T23:48:04.421Z,14.23
2018-11-26T23:50:33.246Z,15.20
2018-11-26T23:53:01.831Z,13.90
2018-11-26T23:55:30.985Z,14.73
2018-11-26T23:58:00.595Z,14.23
